sensor_id;sensor_type;location;lat;lon;timestamp;pressure;altitude;pressure_sealevel;temperature;humidity
2549;BME280;1284;53.520;10.248;2023-03-23T00:01:53;99596.53;;;14.36;85.61
2549;BME280;1284;53.520;10.248;2023-03-23T00:04:19;99598.78;;;14.41;86.04
2549;BME280;1284;53.520;10.248;2023-03-23T00:06:46;99598.19;;;14.26;86.97
2549;BME280;1284;53.520;10.248;2023-03-23T00:09:13;99606.38;;;14.19;87.85
2549;BME280;1284;53.520;10.248;2023-03-23T00:11:41;99603.84;;;14.02;89.45
2549;BME280;1284;53.520;10.248;2023-03-23T00:14:10;99604.25;;;14.00;89.96
2549;BME280;1284;53.520;10.248;2023-03-23T00:16:39;99594.25;;;13.97;90.67
2549;BME280;1284;53.520;10.248;2023-03-23T00:19:12;99597.16;;;14.13;90.41
2549;BME280;1284;53.520;10.248;2023-03-23T00:21:40;99591.88;;;14.03;91.42
2549;BME280;1284;53.520;10.248;2023-03-23T00:24:13;99595.31;;;14.03;91.03
2549;BME280;1284;53.520;10.248;2023-03-23T00:26:41;99591.53;;;13.97;91.91
2549;BME280;1284;53.520;10.248;2023-03-23T00:29:19;99602.97;;;13.75;93.08
2549;BME280;1284;53.520;10.248;2023-03-23T00:31:50;99593.28;;;13.77;93.93
2549;BME280;1284;53.520;10.248;2023-03-23T00:34:21;99581.28;;;13.82;94.11
2549;BME280;1284;53.520;10.248;2023-03-23T00:36:53;99583.53;;;13.87;94.07
2549;BME280;1284;53.520;10.248;2023-03-23T00:39:22;99585.22;;;13.74;94.96
2549;BME280;1284;53.520;10.248;2023-03-23T00:41:54;99588.66;;;13.78;94.89
2549;BME280;1284;53.520;10.248;2023-03-23T00:44:27;99586.69;;;13.78;94.98
2549;BME280;1284;53.520;10.248;2023-03-23T00:46:54;99594.47;;;13.73;95.17
2549;BME280;1284;53.520;10.248;2023-03-23T00:49:23;99583.00;;;13.62;96.62
2549;BME280;1284;53.520;10.248;2023-03-23T00:51:54;99578.00;;;13.60;96.77
2549;BME280;1284;53.520;10.248;2023-03-23T00:54:21;99585.06;;;13.50;98.21
2549;BME280;1284;53.520;10.248;2023-03-23T00:56:48;99572.47;;;13.33;98.88
2549;BME280;1284;53.520;10.248;2023-03-23T00:59:15;99574.25;;;13.47;98.92
2549;BME280;1284;53.520;10.248;2023-03-23T01:01:41;99552.38;;;13.31;98.89
2549;BME280;1284;53.520;10.248;2023-03-23T01:04:06;99543.00;;;13.42;98.88
2549;BME280;1284;53.520;10.248;2023-03-23T01:06:36;99522.84;;;13.06;100.00
2549;BME280;1284;53.520;10.248;2023-03-23T01:09:11;99510.19;;;12.93;100.00
2549;BME280;1284;53.520;10.248;2023-03-23T01:11:40;99515.75;;;13.23;100.00
2549;BME280;1284;53.520;10.248;2023-03-23T01:14:06;99522.72;;;13.24;100.00
2549;BME280;1284;53.520;10.248;2023-03-23T01:16:31;99519.94;;;13.31;100.00
2549;BME280;1284;53.520;10.248;2023-03-23T01:18:57;99516.59;;;13.13;100.00
2549;BME280;1284;53.520;10.248;2023-03-23T01:21:23;99515.13;;;13.05;100.00
2549;BME280;1284;53.520;10.248;2023-03-23T01:23:50;99502.22;;;13.23;100.00
2549;BME280;1284;53.520;10.248;2023-03-23T01:26:21;99497.94;;;13.29;100.00
2549;BME280;1284;53.520;10.248;2023-03-23T01:28:48;99492.28;;;13.13;100.00
2549;BME280;1284;53.520;10.248;2023-03-23T01:31:15;99475.56;;;12.81;100.00
2549;BME280;1284;53.520;10.248;2023-03-23T01:33:43;99465.38;;;12.95;100.00
2549;BME280;1284;53.520;10.248;2023-03-23T01:36:14;99464.88;;;13.11;100.00
2549;BME280;1284;53.520;10.248;2023-03-23T01:38:42;99482.16;;;13.24;100.00
2549;BME280;1284;53.520;10.248;2023-03-23T01:41:09;99482.81;;;13.35;100.00
2549;BME280;1284;53.520;10.248;2023-03-23T01:43:36;99485.44;;;13.42;99.61
2549;BME280;1284;53.520;10.248;2023-03-23T01:46:01;99479.88;;;13.19;100.00
2549;BME280;1284;53.520;10.248;2023-03-23T01:48:34;99466.28;;;13.26;100.00
2549;BME280;1284;53.520;10.248;2023-03-23T01:51:07;99472.91;;;13.21;100.00
2549;BME280;1284;53.520;10.248;2023-03-23T01:53:39;99469.44;;;13.21;100.00
2549;BME280;1284;53.520;10.248;2023-03-23T01:56:07;99465.00;;;12.97;100.00
2549;BME280;1284;53.520;10.248;2023-03-23T01:58:38;99461.44;;;13.07;100.00
2549;BME280;1284;53.520;10.248;2023-03-23T02:01:07;99459.59;;;12.97;100.00
2549;BME280;1284;53.520;10.248;2023-03-23T02:03:34;99459.44;;;13.14;100.00
2549;BME280;1284;53.520;10.248;2023-03-23T02:06:01;99455.56;;;13.15;100.00
2549;BME280;1284;53.520;10.248;2023-03-23T02:08:59;99457.13;;;13.13;100.00
2549;BME280;1284;53.520;10.248;2023-03-23T02:11:25;99453.56;;;13.23;100.00
2549;BME280;1284;53.520;10.248;2023-03-23T02:13:50;99450.69;;;13.00;100.00
2549;BME280;1284;53.520;10.248;2023-03-23T02:27:20;99444.81;;;13.12;100.00
2549;BME280;1284;53.520;10.248;2023-03-23T02:35:13;99442.78;;;13.19;100.00
2549;BME280;1284;53.520;10.248;2023-03-23T02:37:55;99435.47;;;13.16;100.00
2549;BME280;1284;53.520;10.248;2023-03-23T02:40:45;99440.13;;;13.16;100.00
2549;BME280;1284;53.520;10.248;2023-03-23T02:43:18;99431.53;;;13.24;100.00
2549;BME280;1284;53.520;10.248;2023-03-23T02:45:45;99441.94;;;13.26;100.00
2549;BME280;1284;53.520;10.248;2023-03-23T02:48:14;99426.16;;;13.21;100.00
2549;BME280;1284;53.520;10.248;2023-03-23T02:50:44;99427.72;;;13.18;100.00
2549;BME280;1284;53.520;10.248;2023-03-23T02:53:13;99417.81;;;13.08;100.00
2549;BME280;1284;53.520;10.248;2023-03-23T02:55:42;99417.41;;;13.10;100.00
2549;BME280;1284;53.520;10.248;2023-03-23T02:58:12;99410.44;;;13.09;100.00
2549;BME280;1284;53.520;10.248;2023-03-23T03:00:40;99419.38;;;13.43;100.00
2549;BME280;1284;53.520;10.248;2023-03-23T03:03:12;99413.66;;;13.34;100.00
2549;BME280;1284;53.520;10.248;2023-03-23T03:10:58;99389.31;;;13.37;100.00
2549;BME280;1284;53.520;10.248;2023-03-23T03:18:51;99399.50;;;13.23;100.00
2549;BME280;1284;53.520;10.248;2023-03-23T03:21:23;99408.56;;;13.43;100.00
2549;BME280;1284;53.520;10.248;2023-03-23T03:23:56;99394.31;;;13.39;100.00
2549;BME280;1284;53.520;10.248;2023-03-23T03:26:26;99390.38;;;13.43;100.00
2549;BME280;1284;53.520;10.248;2023-03-23T03:28:57;99377.41;;;13.31;100.00
2549;BME280;1284;53.520;10.248;2023-03-23T03:31:28;99376.97;;;13.33;100.00
2549;BME280;1284;53.520;10.248;2023-03-23T03:33:54;99353.78;;;13.35;100.00
2549;BME280;1284;53.520;10.248;2023-03-23T03:36:24;99346.50;;;13.29;100.00
2549;BME280;1284;53.520;10.248;2023-03-23T03:38:51;99357.59;;;13.38;100.00
2549;BME280;1284;53.520;10.248;2023-03-23T03:41:19;99374.13;;;13.47;100.00
2549;BME280;1284;53.520;10.248;2023-03-23T03:43:46;99368.00;;;13.43;100.00
2549;BME280;1284;53.520;10.248;2023-03-23T03:46:12;99342.41;;;13.47;100.00
2549;BME280;1284;53.520;10.248;2023-03-23T03:48:41;99335.13;;;13.44;100.00
2549;BME280;1284;53.520;10.248;2023-03-23T03:51:06;99343.44;;;13.27;100.00
2549;BME280;1284;53.520;10.248;2023-03-23T03:53:38;99323.44;;;13.21;100.00
2549;BME280;1284;53.520;10.248;2023-03-23T03:56:04;99318.53;;;13.12;100.00
2549;BME280;1284;53.520;10.248;2023-03-23T03:58:37;99317.19;;;13.27;100.00
2549;BME280;1284;53.520;10.248;2023-03-23T04:01:21;99325.41;;;13.17;100.00
2549;BME280;1284;53.520;10.248;2023-03-23T04:03:49;99337.94;;;13.34;100.00
2549;BME280;1284;53.520;10.248;2023-03-23T04:06:24;99333.13;;;13.18;100.00
2549;BME280;1284;53.520;10.248;2023-03-23T04:08:57;99346.81;;;13.34;100.00
2549;BME280;1284;53.520;10.248;2023-03-23T04:11:25;99351.81;;;13.36;100.00
2549;BME280;1284;53.520;10.248;2023-03-23T04:13:53;99352.78;;;13.52;100.00
2549;BME280;1284;53.520;10.248;2023-03-23T04:16:21;99340.00;;;13.53;100.00
2549;BME280;1284;53.520;10.248;2023-03-23T04:18:47;99329.34;;;13.42;100.00
2549;BME280;1284;53.520;10.248;2023-03-23T04:21:15;99338.59;;;13.45;100.00
2549;BME280;1284;53.520;10.248;2023-03-23T04:23:45;99344.13;;;13.34;100.00
2549;BME280;1284;53.520;10.248;2023-03-23T04:26:11;99354.16;;;13.34;100.00
2549;BME280;1284;53.520;10.248;2023-03-23T04:28:40;99348.69;;;13.41;100.00
2549;BME280;1284;53.520;10.248;2023-03-23T04:31:29;99367.47;;;13.51;100.00
2549;BME280;1284;53.520;10.248;2023-03-23T04:34:05;99355.09;;;13.54;100.00
2549;BME280;1284;53.520;10.248;2023-03-23T04:36:37;99342.88;;;13.42;100.00
2549;BME280;1284;53.520;10.248;2023-03-23T04:39:10;99357.22;;;13.36;100.00
2549;BME280;1284;53.520;10.248;2023-03-23T04:41:37;99355.66;;;13.38;100.00
2549;BME280;1284;53.520;10.248;2023-03-23T04:44:41;99366.91;;;13.37;100.00
2549;BME280;1284;53.520;10.248;2023-03-23T04:47:12;99376.00;;;13.50;100.00
2549;BME280;1284;53.520;10.248;2023-03-23T04:49:45;99371.16;;;13.34;100.00
2549;BME280;1284;53.520;10.248;2023-03-23T04:55:25;99352.78;;;13.52;100.00
2549;BME280;1284;53.520;10.248;2023-03-23T04:57:55;99357.47;;;13.48;100.00
2549;BME280;1284;53.520;10.248;2023-03-23T05:00:50;99356.97;;;13.57;100.00
2549;BME280;1284;53.520;10.248;2023-03-23T05:03:18;99354.97;;;13.61;100.00
2549;BME280;1284;53.520;10.248;2023-03-23T05:05:45;99351.06;;;13.66;100.00
2549;BME280;1284;53.520;10.248;2023-03-23T05:08:13;99346.91;;;13.57;100.00
2549;BME280;1284;53.520;10.248;2023-03-23T05:10:40;99350.03;;;13.56;100.00
2549;BME280;1284;53.520;10.248;2023-03-23T05:13:10;99344.06;;;13.38;100.00
2549;BME280;1284;53.520;10.248;2023-03-23T05:15:36;99338.97;;;13.43;100.00
2549;BME280;1284;53.520;10.248;2023-03-23T05:18:03;99337.66;;;13.55;100.00
2549;BME280;1284;53.520;10.248;2023-03-23T05:20:30;99336.31;;;13.70;100.00
2549;BME280;1284;53.520;10.248;2023-03-23T05:23:03;99337.44;;;13.73;100.00
2549;BME280;1284;53.520;10.248;2023-03-23T05:25:34;99337.50;;;13.69;100.00
2549;BME280;1284;53.520;10.248;2023-03-23T05:28:15;99340.25;;;13.66;100.00
2549;BME280;1284;53.520;10.248;2023-03-23T05:30:50;99325.16;;;13.65;100.00
2549;BME280;1284;53.520;10.248;2023-03-23T05:33:17;99345.34;;;13.60;100.00
2549;BME280;1284;53.520;10.248;2023-03-23T05:35:56;99339.03;;;13.70;100.00
2549;BME280;1284;53.520;10.248;2023-03-23T05:38:27;99348.28;;;13.42;100.00
2549;BME280;1284;53.520;10.248;2023-03-23T05:40:53;99342.94;;;13.66;100.00
2549;BME280;1284;53.520;10.248;2023-03-23T05:43:26;99343.78;;;13.63;100.00
2549;BME280;1284;53.520;10.248;2023-03-23T05:46:05;99342.09;;;13.42;100.00
2549;BME280;1284;53.520;10.248;2023-03-23T05:48:36;99336.50;;;13.56;100.00
2549;BME280;1284;53.520;10.248;2023-03-23T05:51:03;99342.03;;;13.45;100.00
2549;BME280;1284;53.520;10.248;2023-03-23T05:53:31;99339.72;;;13.47;100.00
2549;BME280;1284;53.520;10.248;2023-03-23T05:55:59;99340.00;;;13.56;100.00
2549;BME280;1284;53.520;10.248;2023-03-23T05:58:45;99334.13;;;13.62;100.00
2549;BME280;1284;53.520;10.248;2023-03-23T06:01:10;99334.13;;;13.62;100.00
2549;BME280;1284;53.520;10.248;2023-03-23T06:03:39;99334.47;;;13.64;100.00
2549;BME280;1284;53.520;10.248;2023-03-23T06:06:25;99325.22;;;13.61;100.00
2549;BME280;1284;53.520;10.248;2023-03-23T06:09:02;99335.13;;;13.44;100.00
2549;BME280;1284;53.520;10.248;2023-03-23T06:11:40;99344.19;;;13.31;100.00
2549;BME280;1284;53.520;10.248;2023-03-23T06:14:23;99329.75;;;13.41;100.00
2549;BME280;1284;53.520;10.248;2023-03-23T06:16:49;99318.47;;;13.46;100.00
2549;BME280;1284;53.520;10.248;2023-03-23T06:19:16;99330.06;;;13.46;100.00
2549;BME280;1284;53.520;10.248;2023-03-23T06:21:51;99320.75;;;13.51;100.00
2549;BME280;1284;53.520;10.248;2023-03-23T06:24:23;99329.41;;;13.39;100.00
2549;BME280;1284;53.520;10.248;2023-03-23T06:26:48;99328.44;;;13.52;100.00
2549;BME280;1284;53.520;10.248;2023-03-23T06:29:18;99331.47;;;13.58;99.95
2549;BME280;1284;53.520;10.248;2023-03-23T06:31:50;99336.16;;;13.54;100.00
2549;BME280;1284;53.520;10.248;2023-03-23T06:34:18;99332.72;;;13.50;99.16
2549;BME280;1284;53.520;10.248;2023-03-23T06:36:47;99338.97;;;13.47;99.44
2549;BME280;1284;53.520;10.248;2023-03-23T06:39:25;99332.25;;;13.55;99.83
2549;BME280;1284;53.520;10.248;2023-03-23T06:42:17;99333.19;;;13.45;99.54
2549;BME280;1284;53.520;10.248;2023-03-23T06:44:48;99333.69;;;13.63;99.05
2549;BME280;1284;53.520;10.248;2023-03-23T06:47:14;99337.19;;;13.64;98.92
2549;BME280;1284;53.520;10.248;2023-03-23T06:49:45;99336.09;;;13.57;98.27
2549;BME280;1284;53.520;10.248;2023-03-23T06:52:18;99331.22;;;13.45;99.48
2549;BME280;1284;53.520;10.248;2023-03-23T06:54:44;99335.59;;;13.36;99.09
2549;BME280;1284;53.520;10.248;2023-03-23T06:57:11;99341.38;;;13.38;98.86
2549;BME280;1284;53.520;10.248;2023-03-23T06:59:37;99339.09;;;13.36;99.58
2549;BME280;1284;53.520;10.248;2023-03-23T07:02:03;99345.28;;;13.64;97.74
2549;BME280;1284;53.520;10.248;2023-03-23T07:04:31;99338.97;;;13.74;97.32
2549;BME280;1284;53.520;10.248;2023-03-23T07:10:10;99344.81;;;13.72;96.89
2549;BME280;1284;53.520;10.248;2023-03-23T07:12:36;99353.28;;;13.74;97.14
2549;BME280;1284;53.520;10.248;2023-03-23T07:15:05;99341.16;;;13.82;96.78
2549;BME280;1284;53.520;10.248;2023-03-23T07:17:33;99342.00;;;13.79;96.16
2549;BME280;1284;53.520;10.248;2023-03-23T07:20:11;99340.13;;;13.73;96.95
2549;BME280;1284;53.520;10.248;2023-03-23T07:22:37;99334.75;;;13.99;96.72
2549;BME280;1284;53.520;10.248;2023-03-23T07:25:11;99347.44;;;14.02;95.37
2549;BME280;1284;53.520;10.248;2023-03-23T07:31:32;99356.19;;;14.40;93.88
2549;BME280;1284;53.520;10.248;2023-03-23T07:33:58;99354.63;;;14.39;93.89
2549;BME280;1284;53.520;10.248;2023-03-23T07:36:31;99355.13;;;14.57;93.86
2549;BME280;1284;53.520;10.248;2023-03-23T07:38:58;99359.81;;;14.76;92.25
2549;BME280;1284;53.520;10.248;2023-03-23T07:41:24;99360.31;;;14.91;92.71
2549;BME280;1284;53.520;10.248;2023-03-23T07:43:51;99367.16;;;15.18;91.12
2549;BME280;1284;53.520;10.248;2023-03-23T07:46:28;99368.00;;;15.15;90.38
2549;BME280;1284;53.520;10.248;2023-03-23T07:49:14;99372.66;;;15.15;89.35
2549;BME280;1284;53.520;10.248;2023-03-23T07:55:12;99374.22;;;14.93;89.43
2549;BME280;1284;53.520;10.248;2023-03-23T07:58:11;99370.50;;;14.83;89.51
2549;BME280;1284;53.520;10.248;2023-03-23T08:00:47;99365.34;;;14.69;89.80
2549;BME280;1284;53.520;10.248;2023-03-23T08:03:16;99374.81;;;14.81;89.33
2549;BME280;1284;53.520;10.248;2023-03-23T08:05:57;99373.28;;;14.80;89.01
2549;BME280;1284;53.520;10.248;2023-03-23T08:08:42;99375.50;;;14.65;90.77
2549;BME280;1284;53.520;10.248;2023-03-23T08:11:30;99365.66;;;14.75;90.38
2549;BME280;1284;53.520;10.248;2023-03-23T08:14:34;99361.31;;;14.77;89.83
2549;BME280;1284;53.520;10.248;2023-03-23T08:17:22;99373.72;;;14.78;90.13
2549;BME280;1284;53.520;10.248;2023-03-23T08:20:09;99372.09;;;14.81;89.51
2549;BME280;1284;53.520;10.248;2023-03-23T08:22:57;99372.25;;;14.74;89.92
2549;BME280;1284;53.520;10.248;2023-03-23T08:25:55;99374.72;;;14.65;90.94
2549;BME280;1284;53.520;10.248;2023-03-23T08:28:41;99374.66;;;14.68;91.52
2549;BME280;1284;53.520;10.248;2023-03-23T08:31:34;99387.09;;;14.66;92.13
2549;BME280;1284;53.520;10.248;2023-03-23T08:34:11;99393.41;;;14.36;94.10
2549;BME280;1284;53.520;10.248;2023-03-23T08:36:52;99405.38;;;14.35;94.55
2549;BME280;1284;53.520;10.248;2023-03-23T08:39:40;99392.25;;;14.33;94.96
2549;BME280;1284;53.520;10.248;2023-03-23T08:42:31;99404.88;;;14.43;95.39
2549;BME280;1284;53.520;10.248;2023-03-23T08:45:17;99408.03;;;14.38;95.58
2549;BME280;1284;53.520;10.248;2023-03-23T08:48:16;99408.50;;;14.07;98.61
2549;BME280;1284;53.520;10.248;2023-03-23T08:51:00;99407.53;;;14.20;97.85
2549;BME280;1284;53.520;10.248;2023-03-23T08:53:49;99396.66;;;13.97;98.85
2549;BME280;1284;53.520;10.248;2023-03-23T08:56:45;99392.97;;;14.11;98.64
2549;BME280;1284;53.520;10.248;2023-03-23T08:59:23;99399.75;;;14.22;96.33
2549;BME280;1284;53.520;10.248;2023-03-23T09:02:01;99400.06;;;14.01;96.82
2549;BME280;1284;53.520;10.248;2023-03-23T09:04:42;99416.25;;;14.05;96.20
2549;BME280;1284;53.520;10.248;2023-03-23T09:07:33;99410.94;;;14.24;95.29
2549;BME280;1284;53.520;10.248;2023-03-23T09:09:58;99412.28;;;14.13;95.38
2549;BME280;1284;53.520;10.248;2023-03-23T09:12:24;99412.06;;;14.27;92.01
2549;BME280;1284;53.520;10.248;2023-03-23T09:14:49;99405.13;;;13.99;93.55
2549;BME280;1284;53.520;10.248;2023-03-23T09:17:15;99412.59;;;14.18;92.64
2549;BME280;1284;53.520;10.248;2023-03-23T09:19:41;99417.94;;;14.22;91.17
2549;BME280;1284;53.520;10.248;2023-03-23T09:22:07;99416.38;;;14.24;92.04
2549;BME280;1284;53.520;10.248;2023-03-23T09:24:33;99421.22;;;14.36;90.65
2549;BME280;1284;53.520;10.248;2023-03-23T09:26:58;99424.66;;;14.40;90.52
2549;BME280;1284;53.520;10.248;2023-03-23T09:29:25;99430.25;;;14.30;89.12
2549;BME280;1284;53.520;10.248;2023-03-23T09:31:51;99442.69;;;14.51;88.20
2549;BME280;1284;53.520;10.248;2023-03-23T09:34:18;99444.13;;;14.59;87.55
2549;BME280;1284;53.520;10.248;2023-03-23T09:36:44;99446.63;;;14.69;86.30
2549;BME280;1284;53.520;10.248;2023-03-23T09:39:10;99451.41;;;14.62;86.75
2549;BME280;1284;53.520;10.248;2023-03-23T09:50:16;99462.47;;;14.48;88.04
2549;BME280;1284;53.520;10.248;2023-03-23T09:55:19;99467.69;;;14.85;86.52
2549;BME280;1284;53.520;10.248;2023-03-23T09:58:02;99458.19;;;14.73;85.54
2549;BME280;1284;53.520;10.248;2023-03-23T10:00:40;99477.78;;;14.84;85.84
2549;BME280;1284;53.520;10.248;2023-03-23T10:03:14;99472.00;;;15.05;83.71
2549;BME280;1284;53.520;10.248;2023-03-23T10:05:54;99470.88;;;15.03;83.46
2549;BME280;1284;53.520;10.248;2023-03-23T10:08:22;99486.91;;;14.94;84.12
2549;BME280;1284;53.520;10.248;2023-03-23T10:16:39;99478.47;;;15.11;84.05
2549;BME280;1284;53.520;10.248;2023-03-23T10:19:11;99480.59;;;15.00;85.49
2549;BME280;1284;53.520;10.248;2023-03-23T10:21:41;99486.91;;;15.17;84.07
2549;BME280;1284;53.520;10.248;2023-03-23T10:24:14;99493.41;;;15.46;82.02
2549;BME280;1284;53.520;10.248;2023-03-23T10:27:08;99495.44;;;15.62;80.97
2549;BME280;1284;53.520;10.248;2023-03-23T10:29:39;99499.44;;;15.54;81.34
2549;BME280;1284;53.520;10.248;2023-03-23T10:32:13;99496.25;;;15.59;80.27
2549;BME280;1284;53.520;10.248;2023-03-23T10:34:56;99498.31;;;15.51;79.80
2549;BME280;1284;53.520;10.248;2023-03-23T10:37:26;99514.31;;;15.46;80.67
2549;BME280;1284;53.520;10.248;2023-03-23T10:39:58;99499.69;;;15.16;82.58
2549;BME280;1284;53.520;10.248;2023-03-23T10:42:31;99513.44;;;15.52;81.27
2549;BME280;1284;53.520;10.248;2023-03-23T10:45:00;99498.50;;;15.64;79.37
2549;BME280;1284;53.520;10.248;2023-03-23T10:47:26;99501.47;;;15.69;78.79
2549;BME280;1284;53.520;10.248;2023-03-23T10:49:57;99519.09;;;15.61;79.24
2549;BME280;1284;53.520;10.248;2023-03-23T10:52:32;99532.50;;;15.68;78.62
2549;BME280;1284;53.520;10.248;2023-03-23T10:55:22;99520.63;;;15.82;77.89
2549;BME280;1284;53.520;10.248;2023-03-23T10:58:03;99526.97;;;15.75;78.51
2549;BME280;1284;53.520;10.248;2023-03-23T11:00:29;99525.75;;;15.76;79.30
2549;BME280;1284;53.520;10.248;2023-03-23T11:03:06;99523.47;;;15.75;79.35
2549;BME280;1284;53.520;10.248;2023-03-23T11:05:36;99535.22;;;15.68;79.70
2549;BME280;1284;53.520;10.248;2023-03-23T11:08:04;99528.75;;;15.62;79.95
2549;BME280;1284;53.520;10.248;2023-03-23T11:10:46;99527.72;;;15.76;78.83
2549;BME280;1284;53.520;10.248;2023-03-23T11:13:14;99524.00;;;15.66;79.69
2549;BME280;1284;53.520;10.248;2023-03-23T11:15:43;99528.03;;;15.58;79.85
2549;BME280;1284;53.520;10.248;2023-03-23T11:20:48;99518.03;;;15.32;81.33
2549;BME280;1284;53.520;10.248;2023-03-23T11:28:30;99540.19;;;15.93;79.31
2549;BME280;1284;53.520;10.248;2023-03-23T11:30:58;99530.59;;;15.88;79.04
2549;BME280;1284;53.520;10.248;2023-03-23T11:33:28;99537.81;;;15.75;80.23
2549;BME280;1284;53.520;10.248;2023-03-23T11:35:54;99527.56;;;15.63;81.57
2549;BME280;1284;53.520;10.248;2023-03-23T11:38:21;99544.59;;;15.87;80.24
2549;BME280;1284;53.520;10.248;2023-03-23T11:40:51;99531.41;;;15.85;79.98
2549;BME280;1284;53.520;10.248;2023-03-23T11:43:24;99539.78;;;15.94;79.20
2549;BME280;1284;53.520;10.248;2023-03-23T11:48:53;99543.94;;;15.99;79.92
2549;BME280;1284;53.520;10.248;2023-03-23T11:51:26;99550.41;;;16.05;79.40
2549;BME280;1284;53.520;10.248;2023-03-23T11:56:38;99551.69;;;16.20;79.26
2549;BME280;1284;53.520;10.248;2023-03-23T11:59:13;99544.91;;;16.28;79.12
2549;BME280;1284;53.520;10.248;2023-03-23T12:01:43;99546.28;;;16.36;79.57
2549;BME280;1284;53.520;10.248;2023-03-23T12:04:34;99556.81;;;16.34;79.89
2549;BME280;1284;53.520;10.248;2023-03-23T12:13:30;99561.44;;;15.98;79.65
2549;BME280;1284;53.520;10.248;2023-03-23T12:16:11;99567.47;;;16.05;79.33
2549;BME280;1284;53.520;10.248;2023-03-23T12:19:01;99552.94;;;15.96;80.54
2549;BME280;1284;53.520;10.248;2023-03-23T12:24:10;99574.50;;;15.83;80.96
2549;BME280;1284;53.520;10.248;2023-03-23T12:26:57;99569.97;;;15.77;81.06
2549;BME280;1284;53.520;10.248;2023-03-23T12:30:21;99568.78;;;15.78;81.44
2549;BME280;1284;53.520;10.248;2023-03-23T12:35:32;99579.66;;;15.78;81.85
2549;BME280;1284;53.520;10.248;2023-03-23T12:43:30;99562.09;;;15.63;81.04
2549;BME280;1284;53.520;10.248;2023-03-23T12:48:53;99567.63;;;15.79;81.21
2549;BME280;1284;53.520;10.248;2023-03-23T12:51:31;99564.13;;;15.78;82.54
2549;BME280;1284;53.520;10.248;2023-03-23T12:56:35;99561.91;;;15.73;84.66
2549;BME280;1284;53.520;10.248;2023-03-23T12:59:13;99558.69;;;15.78;83.16
2549;BME280;1284;53.520;10.248;2023-03-23T13:01:47;99545.84;;;16.02;82.32
2549;BME280;1284;53.520;10.248;2023-03-23T13:04:44;99544.25;;;16.04;81.30
2549;BME280;1284;53.520;10.248;2023-03-23T13:07:22;99529.72;;;15.91;80.84
2549;BME280;1284;53.520;10.248;2023-03-23T13:10:03;99541.91;;;15.83;81.49
2549;BME280;1284;53.520;10.248;2023-03-23T13:12:31;99536.63;;;15.96;81.53
2549;BME280;1284;53.520;10.248;2023-03-23T13:15:20;99536.47;;;16.22;81.63
2549;BME280;1284;53.520;10.248;2023-03-23T13:23:20;99546.66;;;16.74;78.08
2549;BME280;1284;53.520;10.248;2023-03-23T13:25:56;99544.19;;;16.79;76.70
2549;BME280;1284;53.520;10.248;2023-03-23T13:28:29;99540.22;;;16.84;76.57
2549;BME280;1284;53.520;10.248;2023-03-23T13:31:19;99544.28;;;16.76;76.82
2549;BME280;1284;53.520;10.248;2023-03-23T13:33:51;99536.53;;;16.74;76.65
2549;BME280;1284;53.520;10.248;2023-03-23T13:36:26;99529.06;;;16.62;78.10
2549;BME280;1284;53.520;10.248;2023-03-23T13:38:52;99532.53;;;16.79;76.14
2549;BME280;1284;53.520;10.248;2023-03-23T13:41:19;99541.69;;;16.53;76.92
2549;BME280;1284;53.520;10.248;2023-03-23T13:43:47;99527.63;;;16.74;76.11
2549;BME280;1284;53.520;10.248;2023-03-23T13:48:45;99524.47;;;16.40;76.61
2549;BME280;1284;53.520;10.248;2023-03-23T13:54:14;99534.22;;;16.73;76.09
2549;BME280;1284;53.520;10.248;2023-03-23T13:56:47;99539.16;;;16.62;76.73
2549;BME280;1284;53.520;10.248;2023-03-23T13:59:28;99526.97;;;16.86;74.17
2549;BME280;1284;53.520;10.248;2023-03-23T14:01:55;99513.53;;;16.95;73.24
2549;BME280;1284;53.520;10.248;2023-03-23T14:04:31;99515.69;;;17.32;72.27
2549;BME280;1284;53.520;10.248;2023-03-23T14:07:09;99512.25;;;17.60;71.20
2549;BME280;1284;53.520;10.248;2023-03-23T14:09:41;99515.28;;;17.78;71.72
2549;BME280;1284;53.520;10.248;2023-03-23T14:12:26;99526.25;;;18.03;69.43
2549;BME280;1284;53.520;10.248;2023-03-23T14:14:58;99527.19;;;17.97;66.87
2549;BME280;1284;53.520;10.248;2023-03-23T14:17:32;99528.47;;;17.92;67.40
2549;BME280;1284;53.520;10.248;2023-03-23T14:20:00;99527.25;;;17.52;68.56
2549;BME280;1284;53.520;10.248;2023-03-23T14:22:44;99537.72;;;17.22;69.46
2549;BME280;1284;53.520;10.248;2023-03-23T14:27:35;99532.38;;;17.18;70.23
2549;BME280;1284;53.520;10.248;2023-03-23T14:30:03;99566.41;;;17.10;74.42
2549;BME280;1284;53.520;10.248;2023-03-23T14:32:31;99576.41;;;16.25;81.69
2549;BME280;1284;53.520;10.248;2023-03-23T14:34:58;99578.88;;;15.58;87.14
2549;BME280;1284;53.520;10.248;2023-03-23T14:37:24;99561.31;;;15.16;89.78
2549;BME280;1284;53.520;10.248;2023-03-23T14:39:54;99548.22;;;15.57;88.16
2549;BME280;1284;53.520;10.248;2023-03-23T14:42:36;99542.16;;;15.92;88.07
2549;BME280;1284;53.520;10.248;2023-03-23T14:45:04;99541.81;;;16.26;85.40
2549;BME280;1284;53.520;10.248;2023-03-23T14:47:40;99544.50;;;16.30;82.59
2549;BME280;1284;53.520;10.248;2023-03-23T14:52:49;99557.47;;;16.02;83.93
2549;BME280;1284;53.520;10.248;2023-03-23T14:55:22;99562.66;;;15.93;83.78
2549;BME280;1284;53.520;10.248;2023-03-23T14:57:49;99569.03;;;15.87;82.19
2549;BME280;1284;53.520;10.248;2023-03-23T15:00:18;99573.13;;;15.95;81.09
2549;BME280;1284;53.520;10.248;2023-03-23T15:02:47;99574.50;;;15.83;81.58
2549;BME280;1284;53.520;10.248;2023-03-23T15:05:18;99576.66;;;15.72;81.77
2549;BME280;1284;53.520;10.248;2023-03-23T15:07:47;99571.72;;;15.67;80.78
2549;BME280;1284;53.520;10.248;2023-03-23T15:10:18;99574.44;;;15.67;80.13
2549;BME280;1284;53.520;10.248;2023-03-23T15:12:46;99581.34;;;15.91;78.51
2549;BME280;1284;53.520;10.248;2023-03-23T15:17:46;99584.88;;;15.88;77.91
2549;BME280;1284;53.520;10.248;2023-03-23T15:23:04;99600.94;;;15.60;78.57
2549;BME280;1284;53.520;10.248;2023-03-23T15:25:32;99594.72;;;15.59;78.69
2549;BME280;1284;53.520;10.248;2023-03-23T15:28:14;99613.50;;;15.50;78.65
2549;BME280;1284;53.520;10.248;2023-03-23T15:30:55;99620.31;;;15.58;78.00
2549;BME280;1284;53.520;10.248;2023-03-23T15:33:23;99607.38;;;15.46;78.19